sensor_id;sensor_type;location;lat;lon;timestamp;P1;durP1;ratioP1;P2;durP2;ratioP2
7045;SDS011;3564;53.326;10.356;2023-06-10T00:00:42;7.77;;;3.67;;
7045;SDS011;3564;53.326;10.356;2023-06-10T00:03:07;6.00;;;3.80;;
7045;SDS011;3564;53.326;10.356;2023-06-10T00:05:34;7.93;;;3.63;;
7045;SDS011;3564;53.326;10.356;2023-06-10T00:08:01;6.13;;;3.87;;
7045;SDS011;3564;53.326;10.356;2023-06-10T00:10:32;6.50;;;3.67;;
7045;SDS011;3564;53.326;10.356;2023-06-10T00:12:58;5.97;;;3.93;;
7045;SDS011;3564;53.326;10.356;2023-06-10T00:15:24;7.30;;;3.73;;
7045;SDS011;3564;53.326;10.356;2023-06-10T00:17:50;6.80;;;4.23;;
7045;SDS011;3564;53.326;10.356;2023-06-10T00:20:17;8.27;;;3.70;;
7045;SDS011;3564;53.326;10.356;2023-06-10T00:22:43;4.93;;;3.43;;
7045;SDS011;3564;53.326;10.356;2023-06-10T00:25:10;7.07;;;4.03;;
7045;SDS011;3564;53.326;10.356;2023-06-10T00:27:37;6.23;;;3.77;;
7045;SDS011;3564;53.326;10.356;2023-06-10T00:30:03;7.40;;;4.07;;
7045;SDS011;3564;53.326;10.356;2023-06-10T00:32:32;7.53;;;4.10;;
7045;SDS011;3564;53.326;10.356;2023-06-10T00:35:02;5.47;;;3.70;;
7045;SDS011;3564;53.326;10.356;2023-06-10T00:37:28;6.57;;;3.90;;
7045;SDS011;3564;53.326;10.356;2023-06-10T00:39:55;6.50;;;3.83;;
7045;SDS011;3564;53.326;10.356;2023-06-10T00:42:20;6.43;;;3.60;;
7045;SDS011;3564;53.326;10.356;2023-06-10T00:44:50;9.83;;;3.93;;
7045;SDS011;3564;53.326;10.356;2023-06-10T00:47:16;6.73;;;3.33;;
7045;SDS011;3564;53.326;10.356;2023-06-10T00:49:42;6.00;;;3.67;;
7045;SDS011;3564;53.326;10.356;2023-06-10T00:52:08;7.43;;;4.00;;
7045;SDS011;3564;53.326;10.356;2023-06-10T00:54:35;5.47;;;3.67;;
7045;SDS011;3564;53.326;10.356;2023-06-10T00:57:02;5.30;;;3.40;;
7045;SDS011;3564;53.326;10.356;2023-06-10T00:59:29;8.20;;;3.77;;
7045;SDS011;3564;53.326;10.356;2023-06-10T01:01:56;6.60;;;3.53;;
7045;SDS011;3564;53.326;10.356;2023-06-10T01:04:22;7.33;;;3.57;;
7045;SDS011;3564;53.326;10.356;2023-06-10T01:07:33;8.47;;;3.57;;
7045;SDS011;3564;53.326;10.356;2023-06-10T01:12:37;5.37;;;3.70;;
7045;SDS011;3564;53.326;10.356;2023-06-10T01:15:13;6.60;;;3.47;;
7045;SDS011;3564;53.326;10.356;2023-06-10T01:17:59;6.07;;;3.57;;
7045;SDS011;3564;53.326;10.356;2023-06-10T01:20:32;9.07;;;3.93;;
7045;SDS011;3564;53.326;10.356;2023-06-10T01:22:58;6.33;;;3.80;;
7045;SDS011;3564;53.326;10.356;2023-06-10T01:25:26;6.03;;;3.20;;
7045;SDS011;3564;53.326;10.356;2023-06-10T01:28:02;7.17;;;3.50;;
7045;SDS011;3564;53.326;10.356;2023-06-10T01:30:41;6.33;;;3.50;;
7045;SDS011;3564;53.326;10.356;2023-06-10T01:33:17;8.53;;;3.90;;
7045;SDS011;3564;53.326;10.356;2023-06-10T01:35:55;6.83;;;3.50;;
7045;SDS011;3564;53.326;10.356;2023-06-10T01:38:23;9.10;;;3.57;;
7045;SDS011;3564;53.326;10.356;2023-06-10T01:40:52;7.13;;;3.63;;
7045;SDS011;3564;53.326;10.356;2023-06-10T01:43:20;6.67;;;3.83;;
7045;SDS011;3564;53.326;10.356;2023-06-10T01:45:46;7.90;;;3.83;;
7045;SDS011;3564;53.326;10.356;2023-06-10T01:48:12;5.33;;;3.67;;
7045;SDS011;3564;53.326;10.356;2023-06-10T01:50:37;6.43;;;3.80;;
7045;SDS011;3564;53.326;10.356;2023-06-10T01:53:03;6.50;;;3.60;;
7045;SDS011;3564;53.326;10.356;2023-06-10T01:55:30;7.67;;;3.63;;
7045;SDS011;3564;53.326;10.356;2023-06-10T01:57:56;5.97;;;3.50;;
7045;SDS011;3564;53.326;10.356;2023-06-10T02:00:21;5.73;;;3.83;;
7045;SDS011;3564;53.326;10.356;2023-06-10T02:02:47;7.67;;;3.80;;
7045;SDS011;3564;53.326;10.356;2023-06-10T02:05:14;6.30;;;3.47;;
7045;SDS011;3564;53.326;10.356;2023-06-10T02:07:39;6.63;;;3.70;;
7045;SDS011;3564;53.326;10.356;2023-06-10T02:10:06;6.10;;;3.33;;
7045;SDS011;3564;53.326;10.356;2023-06-10T02:12:33;6.27;;;3.40;;
7045;SDS011;3564;53.326;10.356;2023-06-10T02:14:59;5.80;;;3.40;;
7045;SDS011;3564;53.326;10.356;2023-06-10T02:17:24;5.70;;;3.10;;
7045;SDS011;3564;53.326;10.356;2023-06-10T02:19:51;7.23;;;3.50;;
7045;SDS011;3564;53.326;10.356;2023-06-10T02:22:22;9.17;;;3.83;;
7045;SDS011;3564;53.326;10.356;2023-06-10T02:24:48;5.23;;;2.83;;
7045;SDS011;3564;53.326;10.356;2023-06-10T02:27:14;6.17;;;3.20;;
7045;SDS011;3564;53.326;10.356;2023-06-10T02:29:41;8.20;;;3.27;;
7045;SDS011;3564;53.326;10.356;2023-06-10T02:32:07;5.60;;;3.33;;
7045;SDS011;3564;53.326;10.356;2023-06-10T02:34:33;7.57;;;2.90;;
7045;SDS011;3564;53.326;10.356;2023-06-10T02:36:58;5.43;;;3.30;;
7045;SDS011;3564;53.326;10.356;2023-06-10T02:39:24;7.70;;;3.53;;
7045;SDS011;3564;53.326;10.356;2023-06-10T02:41:50;6.30;;;3.07;;
7045;SDS011;3564;53.326;10.356;2023-06-10T02:44:17;4.10;;;3.03;;
7045;SDS011;3564;53.326;10.356;2023-06-10T02:46:43;7.70;;;3.30;;
7045;SDS011;3564;53.326;10.356;2023-06-10T02:49:09;6.23;;;3.17;;
7045;SDS011;3564;53.326;10.356;2023-06-10T02:51:35;6.80;;;3.40;;
7045;SDS011;3564;53.326;10.356;2023-06-10T02:54:00;8.50;;;3.33;;
7045;SDS011;3564;53.326;10.356;2023-06-10T02:56:26;6.60;;;3.60;;
7045;SDS011;3564;53.326;10.356;2023-06-10T02:58:52;4.43;;;3.03;;
7045;SDS011;3564;53.326;10.356;2023-06-10T03:01:18;6.77;;;3.10;;
7045;SDS011;3564;53.326;10.356;2023-06-10T03:03:44;6.70;;;2.77;;
7045;SDS011;3564;53.326;10.356;2023-06-10T03:06:11;7.00;;;3.50;;
7045;SDS011;3564;53.326;10.356;2023-06-10T03:08:38;6.17;;;3.20;;
7045;SDS011;3564;53.326;10.356;2023-06-10T03:11:04;7.10;;;3.13;;
7045;SDS011;3564;53.326;10.356;2023-06-10T03:13:29;7.07;;;2.87;;
7045;SDS011;3564;53.326;10.356;2023-06-10T03:15:58;5.17;;;3.00;;
7045;SDS011;3564;53.326;10.356;2023-06-10T03:18:25;4.20;;;2.97;;
7045;SDS011;3564;53.326;10.356;2023-06-10T03:20:52;9.20;;;3.23;;
7045;SDS011;3564;53.326;10.356;2023-06-10T03:23:18;5.10;;;3.13;;
7045;SDS011;3564;53.326;10.356;2023-06-10T03:25:44;5.67;;;3.00;;
7045;SDS011;3564;53.326;10.356;2023-06-10T03:28:10;6.40;;;3.17;;
7045;SDS011;3564;53.326;10.356;2023-06-10T03:30:36;7.67;;;3.30;;
7045;SDS011;3564;53.326;10.356;2023-06-10T03:33:02;5.90;;;2.93;;
7045;SDS011;3564;53.326;10.356;2023-06-10T03:35:28;4.03;;;2.77;;
7045;SDS011;3564;53.326;10.356;2023-06-10T03:37:54;6.30;;;3.30;;
7045;SDS011;3564;53.326;10.356;2023-06-10T03:40:20;6.63;;;2.90;;
7045;SDS011;3564;53.326;10.356;2023-06-10T03:42:45;8.13;;;3.50;;
7045;SDS011;3564;53.326;10.356;2023-06-10T03:45:11;6.03;;;2.80;;
7045;SDS011;3564;53.326;10.356;2023-06-10T03:47:37;6.90;;;2.77;;
7045;SDS011;3564;53.326;10.356;2023-06-10T03:50:03;5.33;;;2.70;;
7045;SDS011;3564;53.326;10.356;2023-06-10T03:52:29;7.63;;;3.00;;
7045;SDS011;3564;53.326;10.356;2023-06-10T03:54:56;5.77;;;2.93;;
7045;SDS011;3564;53.326;10.356;2023-06-10T03:57:21;9.53;;;3.70;;
7045;SDS011;3564;53.326;10.356;2023-06-10T03:59:47;7.13;;;3.23;;
7045;SDS011;3564;53.326;10.356;2023-06-10T04:02:14;6.10;;;3.17;;
7045;SDS011;3564;53.326;10.356;2023-06-10T04:04:39;7.20;;;3.13;;
7045;SDS011;3564;53.326;10.356;2023-06-10T04:07:06;5.83;;;2.83;;
7045;SDS011;3564;53.326;10.356;2023-06-10T04:09:33;7.30;;;3.10;;
7045;SDS011;3564;53.326;10.356;2023-06-10T04:11:59;7.50;;;2.60;;
7045;SDS011;3564;53.326;10.356;2023-06-10T04:14:24;6.83;;;2.90;;
7045;SDS011;3564;53.326;10.356;2023-06-10T04:16:50;5.90;;;2.73;;
7045;SDS011;3564;53.326;10.356;2023-06-10T04:19:16;4.70;;;2.73;;
7045;SDS011;3564;53.326;10.356;2023-06-10T04:21:41;8.13;;;2.80;;
7045;SDS011;3564;53.326;10.356;2023-06-10T04:24:07;5.30;;;2.40;;
7045;SDS011;3564;53.326;10.356;2023-06-10T04:26:34;8.40;;;2.93;;
7045;SDS011;3564;53.326;10.356;2023-06-10T04:29:00;6.50;;;3.07;;
7045;SDS011;3564;53.326;10.356;2023-06-10T04:31:26;4.60;;;2.80;;
7045;SDS011;3564;53.326;10.356;2023-06-10T04:33:51;7.80;;;3.00;;
7045;SDS011;3564;53.326;10.356;2023-06-10T04:36:17;7.17;;;2.43;;
7045;SDS011;3564;53.326;10.356;2023-06-10T04:38:42;7.77;;;2.83;;
7045;SDS011;3564;53.326;10.356;2023-06-10T04:41:08;7.20;;;2.70;;
7045;SDS011;3564;53.326;10.356;2023-06-10T04:43:33;4.67;;;2.47;;
7045;SDS011;3564;53.326;10.356;2023-06-10T04:45:59;4.90;;;2.73;;
7045;SDS011;3564;53.326;10.356;2023-06-10T04:48:25;4.50;;;2.30;;
7045;SDS011;3564;53.326;10.356;2023-06-10T04:50:51;5.93;;;2.60;;
7045;SDS011;3564;53.326;10.356;2023-06-10T04:53:16;5.03;;;3.23;;
7045;SDS011;3564;53.326;10.356;2023-06-10T04:55:42;8.63;;;2.93;;
7045;SDS011;3564;53.326;10.356;2023-06-10T04:58:08;4.90;;;2.70;;
7045;SDS011;3564;53.326;10.356;2023-06-10T05:00:34;6.03;;;2.50;;
7045;SDS011;3564;53.326;10.356;2023-06-10T05:03:00;6.57;;;2.53;;
7045;SDS011;3564;53.326;10.356;2023-06-10T05:05:25;4.03;;;2.70;;
7045;SDS011;3564;53.326;10.356;2023-06-10T05:07:51;4.37;;;2.23;;
7045;SDS011;3564;53.326;10.356;2023-06-10T05:10:17;7.90;;;2.73;;
7045;SDS011;3564;53.326;10.356;2023-06-10T05:12:42;5.27;;;2.60;;
7045;SDS011;3564;53.326;10.356;2023-06-10T05:15:08;7.10;;;2.83;;
7045;SDS011;3564;53.326;10.356;2023-06-10T05:17:34;4.97;;;2.53;;
7045;SDS011;3564;53.326;10.356;2023-06-10T05:20:02;7.20;;;2.70;;
7045;SDS011;3564;53.326;10.356;2023-06-10T05:22:28;5.73;;;2.73;;
7045;SDS011;3564;53.326;10.356;2023-06-10T05:24:54;4.23;;;2.50;;
7045;SDS011;3564;53.326;10.356;2023-06-10T05:27:19;5.60;;;2.93;;
7045;SDS011;3564;53.326;10.356;2023-06-10T05:29:46;4.57;;;2.63;;
7045;SDS011;3564;53.326;10.356;2023-06-10T05:32:11;5.63;;;2.40;;
7045;SDS011;3564;53.326;10.356;2023-06-10T05:34:38;5.70;;;2.83;;
7045;SDS011;3564;53.326;10.356;2023-06-10T05:37:04;6.77;;;2.93;;
7045;SDS011;3564;53.326;10.356;2023-06-10T05:39:31;6.90;;;2.60;;
7045;SDS011;3564;53.326;10.356;2023-06-10T05:41:57;7.17;;;3.00;;
7045;SDS011;3564;53.326;10.356;2023-06-10T05:44:24;7.40;;;2.63;;
7045;SDS011;3564;53.326;10.356;2023-06-10T05:46:50;7.70;;;2.90;;
7045;SDS011;3564;53.326;10.356;2023-06-10T05:49:16;5.17;;;2.33;;
7045;SDS011;3564;53.326;10.356;2023-06-10T05:51:42;7.00;;;3.17;;
7045;SDS011;3564;53.326;10.356;2023-06-10T05:54:07;5.53;;;2.57;;
7045;SDS011;3564;53.326;10.356;2023-06-10T05:56:33;8.70;;;2.97;;
7045;SDS011;3564;53.326;10.356;2023-06-10T05:58:59;6.03;;;2.97;;
7045;SDS011;3564;53.326;10.356;2023-06-10T06:01:24;4.50;;;2.30;;
7045;SDS011;3564;53.326;10.356;2023-06-10T06:03:50;6.73;;;2.57;;
7045;SDS011;3564;53.326;10.356;2023-06-10T06:06:15;6.87;;;2.80;;
7045;SDS011;3564;53.326;10.356;2023-06-10T06:08:41;3.63;;;2.17;;
7045;SDS011;3564;53.326;10.356;2023-06-10T06:11:07;8.57;;;2.70;;
7045;SDS011;3564;53.326;10.356;2023-06-10T06:13:32;5.03;;;2.07;;
7045;SDS011;3564;53.326;10.356;2023-06-10T06:15:58;7.53;;;2.77;;
7045;SDS011;3564;53.326;10.356;2023-06-10T06:18:23;8.33;;;2.63;;
7045;SDS011;3564;53.326;10.356;2023-06-10T06:20:49;8.73;;;2.80;;
7045;SDS011;3564;53.326;10.356;2023-06-10T06:23:15;7.90;;;2.93;;
7045;SDS011;3564;53.326;10.356;2023-06-10T06:25:41;7.60;;;2.57;;
7045;SDS011;3564;53.326;10.356;2023-06-10T06:28:06;7.67;;;2.23;;
7045;SDS011;3564;53.326;10.356;2023-06-10T06:30:34;7.23;;;2.70;;
7045;SDS011;3564;53.326;10.356;2023-06-10T06:33:00;5.53;;;2.47;;
7045;SDS011;3564;53.326;10.356;2023-06-10T06:35:26;6.63;;;3.00;;
7045;SDS011;3564;53.326;10.356;2023-06-10T06:37:51;7.50;;;2.70;;
7045;SDS011;3564;53.326;10.356;2023-06-10T06:40:17;5.93;;;2.47;;
7045;SDS011;3564;53.326;10.356;2023-06-10T06:42:42;5.53;;;2.53;;
7045;SDS011;3564;53.326;10.356;2023-06-10T06:45:08;8.13;;;2.90;;
7045;SDS011;3564;53.326;10.356;2023-06-10T06:47:34;5.80;;;3.10;;
7045;SDS011;3564;53.326;10.356;2023-06-10T06:50:00;6.57;;;2.50;;
7045;SDS011;3564;53.326;10.356;2023-06-10T06:52:25;4.80;;;2.37;;
7045;SDS011;3564;53.326;10.356;2023-06-10T06:54:51;5.63;;;2.63;;
7045;SDS011;3564;53.326;10.356;2023-06-10T06:57:16;7.17;;;3.00;;
7045;SDS011;3564;53.326;10.356;2023-06-10T06:59:42;7.30;;;2.63;;
7045;SDS011;3564;53.326;10.356;2023-06-10T07:02:07;5.60;;;2.80;;
7045;SDS011;3564;53.326;10.356;2023-06-10T07:04:33;8.43;;;2.67;;
7045;SDS011;3564;53.326;10.356;2023-06-10T07:06:58;5.13;;;2.60;;
7045;SDS011;3564;53.326;10.356;2023-06-10T07:09:24;4.53;;;2.37;;
7045;SDS011;3564;53.326;10.356;2023-06-10T07:11:49;5.87;;;2.60;;
7045;SDS011;3564;53.326;10.356;2023-06-10T07:14:15;5.60;;;2.90;;
7045;SDS011;3564;53.326;10.356;2023-06-10T07:16:40;9.93;;;3.33;;
7045;SDS011;3564;53.326;10.356;2023-06-10T07:19:06;4.70;;;2.90;;
7045;SDS011;3564;53.326;10.356;2023-06-10T07:21:32;10.57;;;3.20;;
7045;SDS011;3564;53.326;10.356;2023-06-10T07:23:59;8.03;;;2.80;;
7045;SDS011;3564;53.326;10.356;2023-06-10T07:26:25;5.13;;;2.90;;
7045;SDS011;3564;53.326;10.356;2023-06-10T07:28:50;7.87;;;2.83;;
7045;SDS011;3564;53.326;10.356;2023-06-10T07:31:16;5.70;;;2.70;;
7045;SDS011;3564;53.326;10.356;2023-06-10T07:33:42;6.63;;;2.53;;
7045;SDS011;3564;53.326;10.356;2023-06-10T07:36:08;5.83;;;2.70;;
7045;SDS011;3564;53.326;10.356;2023-06-10T07:38:34;8.77;;;2.83;;
7045;SDS011;3564;53.326;10.356;2023-06-10T07:41:00;5.03;;;2.60;;
7045;SDS011;3564;53.326;10.356;2023-06-10T07:43:26;7.50;;;2.90;;
7045;SDS011;3564;53.326;10.356;2023-06-10T07:45:52;6.57;;;2.80;;
7045;SDS011;3564;53.326;10.356;2023-06-10T07:48:17;5.77;;;3.00;;
7045;SDS011;3564;53.326;10.356;2023-06-10T07:50:43;7.93;;;3.13;;
7045;SDS011;3564;53.326;10.356;2023-06-10T07:53:09;8.57;;;3.23;;
7045;SDS011;3564;53.326;10.356;2023-06-10T07:55:34;7.70;;;3.10;;
7045;SDS011;3564;53.326;10.356;2023-06-10T07:58:00;6.17;;;2.80;;
7045;SDS011;3564;53.326;10.356;2023-06-10T08:00:25;10.30;;;3.20;;
7045;SDS011;3564;53.326;10.356;2023-06-10T08:02:51;7.03;;;3.00;;
7045;SDS011;3564;53.326;10.356;2023-06-10T08:05:17;6.77;;;3.00;;
7045;SDS011;3564;53.326;10.356;2023-06-10T08:07:42;8.27;;;3.20;;
7045;SDS011;3564;53.326;10.356;2023-06-10T08:10:08;7.10;;;2.83;;
7045;SDS011;3564;53.326;10.356;2023-06-10T08:12:35;5.33;;;2.87;;
7045;SDS011;3564;53.326;10.356;2023-06-10T08:15:01;8.93;;;3.17;;
7045;SDS011;3564;53.326;10.356;2023-06-10T08:17:29;6.80;;;2.90;;
7045;SDS011;3564;53.326;10.356;2023-06-10T08:19:55;8.37;;;3.30;;
7045;SDS011;3564;53.326;10.356;2023-06-10T08:22:21;9.47;;;2.80;;
7045;SDS011;3564;53.326;10.356;2023-06-10T08:24:46;5.57;;;3.00;;
7045;SDS011;3564;53.326;10.356;2023-06-10T08:27:12;7.00;;;3.00;;
7045;SDS011;3564;53.326;10.356;2023-06-10T08:29:38;7.10;;;3.30;;
7045;SDS011;3564;53.326;10.356;2023-06-10T08:32:04;5.00;;;2.90;;
7045;SDS011;3564;53.326;10.356;2023-06-10T08:34:33;6.13;;;2.90;;
7045;SDS011;3564;53.326;10.356;2023-06-10T08:37:00;5.93;;;3.00;;
7045;SDS011;3564;53.326;10.356;2023-06-10T08:39:26;8.93;;;3.53;;
7045;SDS011;3564;53.326;10.356;2023-06-10T08:41:57;5.90;;;2.70;;
7045;SDS011;3564;53.326;10.356;2023-06-10T08:44:36;7.40;;;2.93;;
7045;SDS011;3564;53.326;10.356;2023-06-10T08:47:10;6.63;;;2.80;;
7045;SDS011;3564;53.326;10.356;2023-06-10T08:49:41;9.03;;;3.00;;
7045;SDS011;3564;53.326;10.356;2023-06-10T08:52:08;6.87;;;2.80;;
7045;SDS011;3564;53.326;10.356;2023-06-10T08:54:39;7.23;;;2.77;;
7045;SDS011;3564;53.326;10.356;2023-06-10T08:57:14;6.13;;;2.93;;
7045;SDS011;3564;53.326;10.356;2023-06-10T08:59:43;5.23;;;2.93;;
7045;SDS011;3564;53.326;10.356;2023-06-10T09:02:11;6.07;;;2.70;;
7045;SDS011;3564;53.326;10.356;2023-06-10T09:04:38;4.30;;;2.50;;
7045;SDS011;3564;53.326;10.356;2023-06-10T09:07:04;3.67;;;2.70;;
7045;SDS011;3564;53.326;10.356;2023-06-10T09:09:31;6.20;;;3.60;;
7045;SDS011;3564;53.326;10.356;2023-06-10T09:11:59;6.23;;;2.97;;
7045;SDS011;3564;53.326;10.356;2023-06-10T09:14:25;8.13;;;3.27;;
7045;SDS011;3564;53.326;10.356;2023-06-10T09:16:50;4.97;;;2.80;;
7045;SDS011;3564;53.326;10.356;2023-06-10T09:19:16;5.53;;;3.00;;
7045;SDS011;3564;53.326;10.356;2023-06-10T09:21:42;7.93;;;3.60;;
7045;SDS011;3564;53.326;10.356;2023-06-10T09:24:08;5.47;;;3.30;;
7045;SDS011;3564;53.326;10.356;2023-06-10T09:26:34;7.43;;;3.27;;
7045;SDS011;3564;53.326;10.356;2023-06-10T09:29:03;7.90;;;3.30;;
7045;SDS011;3564;53.326;10.356;2023-06-10T09:31:37;8.10;;;3.30;;
7045;SDS011;3564;53.326;10.356;2023-06-10T09:36:39;7.77;;;3.17;;
7045;SDS011;3564;53.326;10.356;2023-06-10T09:39:13;5.67;;;3.20;;
7045;SDS011;3564;53.326;10.356;2023-06-10T09:41:40;6.23;;;3.40;;
7045;SDS011;3564;53.326;10.356;2023-06-10T09:44:13;5.00;;;3.30;;
7045;SDS011;3564;53.326;10.356;2023-06-10T09:46:45;4.97;;;3.20;;
7045;SDS011;3564;53.326;10.356;2023-06-10T09:49:12;5.20;;;3.00;;
7045;SDS011;3564;53.326;10.356;2023-06-10T09:51:38;6.30;;;3.33;;
7045;SDS011;3564;53.326;10.356;2023-06-10T09:54:18;7.53;;;3.60;;
7045;SDS011;3564;53.326;10.356;2023-06-10T09:56:46;5.37;;;2.80;;
7045;SDS011;3564;53.326;10.356;2023-06-10T09:59:13;6.43;;;3.30;;
7045;SDS011;3564;53.326;10.356;2023-06-10T10:01:39;8.03;;;4.37;;
7045;SDS011;3564;53.326;10.356;2023-06-10T10:04:05;7.90;;;3.83;;
7045;SDS011;3564;53.326;10.356;2023-06-10T10:06:30;7.17;;;3.83;;
7045;SDS011;3564;53.326;10.356;2023-06-10T10:08:57;5.83;;;3.43;;
7045;SDS011;3564;53.326;10.356;2023-06-10T10:11:23;10.63;;;4.03;;
7045;SDS011;3564;53.326;10.356;2023-06-10T10:13:51;7.63;;;4.07;;
7045;SDS011;3564;53.326;10.356;2023-06-10T10:16:21;6.63;;;3.50;;
7045;SDS011;3564;53.326;10.356;2023-06-10T10:18:58;9.40;;;3.87;;
7045;SDS011;3564;53.326;10.356;2023-06-10T10:21:31;6.17;;;3.93;;
7045;SDS011;3564;53.326;10.356;2023-06-10T10:24:16;7.13;;;3.73;;
7045;SDS011;3564;53.326;10.356;2023-06-10T10:26:46;5.53;;;3.60;;
7045;SDS011;3564;53.326;10.356;2023-06-10T10:29:32;4.60;;;3.10;;
7045;SDS011;3564;53.326;10.356;2023-06-10T10:32:03;5.18;;;3.42;;
7045;SDS011;3564;53.326;10.356;2023-06-10T10:34:35;7.23;;;3.70;;
7045;SDS011;3564;53.326;10.356;2023-06-10T10:37:06;5.47;;;3.58;;
7045;SDS011;3564;53.326;10.356;2023-06-10T10:39:32;6.07;;;3.60;;
7045;SDS011;3564;53.326;10.356;2023-06-10T10:41:59;6.68;;;4.38;;
7045;SDS011;3564;53.326;10.356;2023-06-10T10:44:28;6.43;;;4.20;;
7045;SDS011;3564;53.326;10.356;2023-06-10T10:46:54;5.30;;;4.10;;
7045;SDS011;3564;53.326;10.356;2023-06-10T10:49:21;10.85;;;4.80;;
7045;SDS011;3564;53.326;10.356;2023-06-10T10:51:58;7.20;;;4.22;;
7045;SDS011;3564;53.326;10.356;2023-06-10T10:54:43;12.70;;;4.30;;
7045;SDS011;3564;53.326;10.356;2023-06-10T11:02:34;6.57;;;4.10;;
7045;SDS011;3564;53.326;10.356;2023-06-10T11:05:15;8.05;;;4.15;;
7045;SDS011;3564;53.326;10.356;2023-06-10T11:07:51;7.13;;;4.15;;
7045;SDS011;3564;53.326;10.356;2023-06-10T11:10:28;8.25;;;4.35;;
7045;SDS011;3564;53.326;10.356;2023-06-10T11:12:58;9.68;;;4.40;;
7045;SDS011;3564;53.326;10.356;2023-06-10T11:15:28;8.07;;;3.58;;
7045;SDS011;3564;53.326;10.356;2023-06-10T11:18:11;5.65;;;4.10;;
7045;SDS011;3564;53.326;10.356;2023-06-10T11:20:57;9.43;;;4.38;;
7045;SDS011;3564;53.326;10.356;2023-06-10T11:25:51;7.97;;;4.05;;
7045;SDS011;3564;53.326;10.356;2023-06-10T11:28:33;6.25;;;4.25;;
7045;SDS011;3564;53.326;10.356;2023-06-10T11:30:59;7.05;;;3.65;;
7045;SDS011;3564;53.326;10.356;2023-06-10T11:33:24;5.85;;;3.78;;
7045;SDS011;3564;53.326;10.356;2023-06-10T11:35:50;6.38;;;3.65;;
7045;SDS011;3564;53.326;10.356;2023-06-10T11:38:17;6.57;;;4.15;;
7045;SDS011;3564;53.326;10.356;2023-06-10T11:40:50;8.25;;;4.38;;
7045;SDS011;3564;53.326;10.356;2023-06-10T11:43:19;5.97;;;4.00;;
7045;SDS011;3564;53.326;10.356;2023-06-10T11:45:45;5.35;;;3.75;;
7045;SDS011;3564;53.326;10.356;2023-06-10T11:48:12;13.95;;;4.80;;
7045;SDS011;3564;53.326;10.356;2023-06-10T11:50:38;6.95;;;4.55;;
7045;SDS011;3564;53.326;10.356;2023-06-10T11:53:04;6.47;;;4.10;;
7045;SDS011;3564;53.326;10.356;2023-06-10T11:55:42;5.78;;;4.03;;
7045;SDS011;3564;53.326;10.356;2023-06-10T11:58:15;6.50;;;4.28;;
7045;SDS011;3564;53.326;10.356;2023-06-10T12:00:54;5.93;;;4.45;;
7045;SDS011;3564;53.326;10.356;2023-06-10T12:03:26;5.60;;;4.00;;
7045;SDS011;3564;53.326;10.356;2023-06-10T12:08:22;8.38;;;3.90;;
7045;SDS011;3564;53.326;10.356;2023-06-10T12:10:48;10.73;;;5.07;;
7045;SDS011;3564;53.326;10.356;2023-06-10T12:13:14;9.10;;;4.40;;
7045;SDS011;3564;53.326;10.356;2023-06-10T12:15:39;8.55;;;4.85;;
7045;SDS011;3564;53.326;10.356;2023-06-10T12:18:05;22.75;;;5.80;;
7045;SDS011;3564;53.326;10.356;2023-06-10T12:20:31;8.40;;;4.45;;
7045;SDS011;3564;53.326;10.356;2023-06-10T12:22:59;7.60;;;4.00;;
7045;SDS011;3564;53.326;10.356;2023-06-10T12:25:26;12.88;;;4.50;;
7045;SDS011;3564;53.326;10.356;2023-06-10T12:27:54;11.27;;;4.60;;
7045;SDS011;3564;53.326;10.356;2023-06-10T12:30:23;6.97;;;4.13;;
7045;SDS011;3564;53.326;10.356;2023-06-10T12:32:51;5.25;;;3.80;;
7045;SDS011;3564;53.326;10.356;2023-06-10T12:35:18;6.07;;;3.95;;
7045;SDS011;3564;53.326;10.356;2023-06-10T12:37:59;6.28;;;3.85;;
7045;SDS011;3564;53.326;10.356;2023-06-10T12:40:37;6.03;;;4.07;;
7045;SDS011;3564;53.326;10.356;2023-06-10T12:43:05;6.00;;;4.30;;
7045;SDS011;3564;53.326;10.356;2023-06-10T12:45:35;4.88;;;3.78;;
7045;SDS011;3564;53.326;10.356;2023-06-10T12:48:24;5.05;;;3.70;;
7045;SDS011;3564;53.326;10.356;2023-06-10T12:50:53;5.20;;;4.20;;
7045;SDS011;3564;53.326;10.356;2023-06-10T12:53:21;6.63;;;4.20;;
7045;SDS011;3564;53.326;10.356;2023-06-10T12:55:51;5.78;;;3.90;;
7045;SDS011;3564;53.326;10.356;2023-06-10T12:58:19;4.85;;;4.00;;
7045;SDS011;3564;53.326;10.356;2023-06-10T13:00:47;8.57;;;4.32;;
7045;SDS011;3564;53.326;10.356;2023-06-10T13:03:13;7.25;;;3.95;;
7045;SDS011;3564;53.326;10.356;2023-06-10T13:05:39;10.05;;;4.13;;
7045;SDS011;3564;53.326;10.356;2023-06-10T13:08:05;7.30;;;4.10;;
7045;SDS011;3564;53.326;10.356;2023-06-10T13:10:37;5.93;;;4.30;;
7045;SDS011;3564;53.326;10.356;2023-06-10T13:13:03;6.93;;;4.22;;
7045;SDS011;3564;53.326;10.356;2023-06-10T13:15:34;6.60;;;3.58;;
7045;SDS011;3564;53.326;10.356;2023-06-10T13:18:03;7.88;;;3.80;;
7045;SDS011;3564;53.326;10.356;2023-06-10T13:20:29;9.85;;;4.25;;
7045;SDS011;3564;53.326;10.356;2023-06-10T13:22:56;5.78;;;3.88;;
7045;SDS011;3564;53.326;10.356;2023-06-10T13:25:22;7.78;;;4.20;;
7045;SDS011;3564;53.326;10.356;2023-06-10T13:27:49;5.03;;;3.70;;
7045;SDS011;3564;53.326;10.356;2023-06-10T13:30:15;5.07;;;3.88;;
7045;SDS011;3564;53.326;10.356;2023-06-10T13:32:40;6.45;;;4.72;;
7045;SDS011;3564;53.326;10.356;2023-06-10T13:35:06;6.70;;;4.05;;
7045;SDS011;3564;53.326;10.356;2023-06-10T13:37:32;5.55;;;3.95;;
7045;SDS011;3564;53.326;10.356;2023-06-10T13:39:58;5.53;;;3.70;;
7045;SDS011;3564;53.326;10.356;2023-06-10T13:42:24;6.07;;;4.13;;
7045;SDS011;3564;53.326;10.356;2023-06-10T13:44:51;6.88;;;4.00;;
7045;SDS011;3564;53.326;10.356;2023-06-10T13:47:17;8.43;;;4.43;;
7045;SDS011;3564;53.326;10.356;2023-06-10T13:49:43;7.68;;;4.50;;
7045;SDS011;3564;53.326;10.356;2023-06-10T13:52:08;4.97;;;4.10;;
7045;SDS011;3564;53.326;10.356;2023-06-10T13:54:34;5.70;;;4.35;;
7045;SDS011;3564;53.326;10.356;2023-06-10T13:57:03;8.57;;;4.65;;
7045;SDS011;3564;53.326;10.356;2023-06-10T13:59:30;6.28;;;4.38;;
7045;SDS011;3564;53.326;10.356;2023-06-10T14:01:55;5.43;;;3.78;;
7045;SDS011;3564;53.326;10.356;2023-06-10T14:04:21;5.78;;;4.43;;
7045;SDS011;3564;53.326;10.356;2023-06-10T14:06:47;5.50;;;4.20;;
7045;SDS011;3564;53.326;10.356;2023-06-10T14:09:13;5.70;;;4.20;;
7045;SDS011;3564;53.326;10.356;2023-06-10T14:11:38;5.85;;;4.10;;
7045;SDS011;3564;53.326;10.356;2023-06-10T14:14:04;9.43;;;4.70;;
7045;SDS011;3564;53.326;10.356;2023-06-10T14:16:30;6.63;;;4.15;;
7045;SDS011;3564;53.326;10.356;2023-06-10T14:18:55;8.68;;;4.85;;
7045;SDS011;3564;53.326;10.356;2023-06-10T14:21:21;11.18;;;5.07;;
7045;SDS011;3564;53.326;10.356;2023-06-10T14:23:47;5.22;;;4.53;;
7045;SDS011;3564;53.326;10.356;2023-06-10T14:26:13;6.28;;;4.50;;
7045;SDS011;3564;53.326;10.356;2023-06-10T14:28:39;6.38;;;4.35;;
7045;SDS011;3564;53.326;10.356;2023-06-10T14:31:05;6.97;;;4.50;;
7045;SDS011;3564;53.326;10.356;2023-06-10T14:33:32;7.20;;;4.60;;
7045;SDS011;3564;53.326;10.356;2023-06-10T14:35:58;5.75;;;4.20;;
7045;SDS011;3564;53.326;10.356;2023-06-10T14:38:23;4.78;;;4.28;;
7045;SDS011;3564;53.326;10.356;2023-06-10T14:40:49;6.95;;;4.90;;
7045;SDS011;3564;53.326;10.356;2023-06-10T14:43:15;4.97;;;4.38;;
7045;SDS011;3564;53.326;10.356;2023-06-10T14:45:40;7.10;;;4.03;;
7045;SDS011;3564;53.326;10.356;2023-06-10T14:48:06;4.72;;;4.18;;
7045;SDS011;3564;53.326;10.356;2023-06-10T14:50:34;6.90;;;4.22;;
7045;SDS011;3564;53.326;10.356;2023-06-10T14:53:00;8.13;;;4.75;;
7045;SDS011;3564;53.326;10.356;2023-06-10T14:55:26;7.05;;;4.10;;
7045;SDS011;3564;53.326;10.356;2023-06-10T14:57:51;5.15;;;4.28;;
7045;SDS011;3564;53.326;10.356;2023-06-10T15:00:17;9.55;;;4.32;;
7045;SDS011;3564;53.326;10.356;2023-06-10T15:02:47;7.65;;;3.55;;
7045;SDS011;3564;53.326;10.356;2023-06-10T15:05:13;6.57;;;3.60;;
7045;SDS011;3564;53.326;10.356;2023-06-10T15:07:42;6.28;;;3.08;;
7045;SDS011;3564;53.326;10.356;2023-06-10T15:10:08;9.63;;;3.50;;
7045;SDS011;3564;53.326;10.356;2023-06-10T15:12:34;9.65;;;3.75;;
7045;SDS011;3564;53.326;10.356;2023-06-10T15:15:00;5.40;;;3.58;;
7045;SDS011;3564;53.326;10.356;2023-06-10T15:17:26;6.90;;;3.42;;